Time;durP1;ratioP1;P1;durP2;ratioP2;P2;SDS_P1;SDS_P2;PMS_P1;PMS_P2;Temp;Humidity;BMP_temperature;BMP_pressure;BME280_temperature;BME280_humidity;BME280_pressure;Samples;Min_cycle;Max_cycle;Signal;HPM_P1;HPM_P2
2022/05/18 00:01:17;;;;;;;;;4.67;3.33;;;;;;;;5077440;27;45386;-78
2022/05/18 00:03:44;;;;;;;;;4.67;4.67;;;;;;;;5077247;27;46453;-78
2022/05/18 00:06:10;;;;;;;;;4.00;4.00;;;;;;;;5077005;27;45383;-77
2022/05/18 00:08:38;;;;;;;;;4.33;4.33;;;;;;;;5077053;27;45422;-76
2022/05/18 00:11:05;;;;;;;;;6.33;5.00;;;;;;;;5077279;27;45374;-77
2022/05/18 00:13:30;;;;;;;;;4.00;4.00;;;;;;;;5077175;27;46279;-77
2022/05/18 00:15:56;;;;;;;;;5.67;4.00;;;;;;;;5076688;28;45375;-77
2022/05/18 00:18:21;;;;;;;;;6.33;4.00;;;;;;;;5077160;28;45317;-77
2022/05/18 00:20:46;;;;;;;;;4.00;4.00;;;;;;;;5077393;27;45379;-77
2022/05/18 00:23:11;;;;;;;;;7.00;4.00;;;;;;;;5076912;27;46121;-76
2022/05/18 00:25:38;;;;;;;;;6.00;4.33;;;;;;;;5076988;27;45419;-77
2022/05/18 00:28:04;;;;;;;;;6.67;5.00;;;;;;;;5076885;27;45355;-76
2022/05/18 00:30:29;;;;;;;;;3.00;3.00;;;;;;;;5078705;27;45328;-76
2022/05/18 00:32:55;;;;;;;;;5.00;4.00;;;;;;;;5080451;27;45387;-76
2022/05/18 00:35:20;;;;;;;;;8.00;5.00;;;;;;;;5080347;27;45383;-76
2022/05/18 00:37:45;;;;;;;;;6.67;3.67;;;;;;;;5080438;27;45399;-77
2022/05/18 00:40:12;;;;;;;;;7.00;4.00;;;;;;;;5079298;27;45265;-77
2022/05/18 00:42:37;;;;;;;;;3.33;3.33;;;;;;;;5080086;27;46652;-77
2022/05/18 00:45:03;;;;;;;;;7.00;4.00;;;;;;;;5080037;27;45177;-77
2022/05/18 00:47:29;;;;;;;;;3.33;3.33;;;;;;;;5080193;27;45342;-77
2022/05/18 00:49:59;;;;;;;;;3.00;3.00;;;;;;;;5080300;27;45419;-77
2022/05/18 00:52:29;;;;;;;;;4.33;3.33;;;;;;;;5079984;27;46478;-77
2022/05/18 00:54:55;;;;;;;;;3.00;3.00;;;;;;;;5080057;27;45323;-77
2022/05/18 00:57:26;;;;;;;;;4.33;3.33;;;;;;;;5080232;27;45421;-77
2022/05/18 00:59:54;;;;;;;;;3.00;3.00;;;;;;;;5080097;28;45463;-77
2022/05/18 01:02:21;;;;;;;;;4.67;4.67;;;;;;;;5079586;27;47165;-77
2022/05/18 01:04:48;;;;;;;;;4.33;4.33;;;;;;;;5079999;28;45328;-77
2022/05/18 01:07:16;;;;;;;;;5.00;5.00;;;;;;;;5079970;27;45403;-77
2022/05/18 01:09:43;;;;;;;;;3.00;3.00;;;;;;;;5080292;27;45368;-77
2022/05/18 01:12:09;;;;;;;;;5.00;3.00;;;;;;;;5079449;27;48824;-77
2022/05/18 01:14:37;;;;;;;;;5.33;4.00;;;;;;;;5079621;27;45321;-77
2022/05/18 01:17:03;;;;;;;;;6.00;4.00;;;;;;;;5079869;28;45429;-77
2022/05/18 01:19:33;;;;;;;;;4.67;4.67;;;;;;;;5079778;28;45298;-77
2022/05/18 01:22:10;;;;;;;;;5.00;5.00;;;;;;;;5079453;27;46748;-77
2022/05/18 01:24:44;;;;;;;;;5.00;4.00;;;;;;;;5079463;27;45266;-78
2022/05/18 01:27:09;;;;;;;;;3.00;3.00;;;;;;;;5079760;28;45260;-77
2022/05/18 01:29:34;;;;;;;;;5.67;4.00;;;;;;;;5079741;27;45392;-78
2022/05/18 01:32:01;;;;;;;;;4.00;4.00;;;;;;;;5079308;27;46124;-77
2022/05/18 01:34:28;;;;;;;;;5.33;4.00;;;;;;;;5079361;28;45225;-77
2022/05/18 01:36:53;;;;;;;;;5.33;5.33;;;;;;;;5079397;27;45343;-78
2022/05/18 01:39:20;;;;;;;;;7.00;5.00;;;;;;;;5080016;27;45295;-78
2022/05/18 01:41:50;;;;;;;;;5.33;5.00;;;;;;;;5079085;27;45457;-77
2022/05/18 01:44:15;;;;;;;;;4.67;4.67;;;;;;;;5079333;27;45312;-77
2022/05/18 01:46:40;;;;;;;;;10.33;7.67;;;;;;;;5079266;27;45315;-77
2022/05/18 01:49:05;;;;;;;;;5.00;5.00;;;;;;;;5079560;28;45309;-77
2022/05/18 01:51:33;;;;;;;;;7.67;4.00;;;;;;;;5079063;27;46344;-77
2022/05/18 01:53:58;;;;;;;;;5.67;5.00;;;;;;;;5079121;27;46077;-77
2022/05/18 01:56:24;;;;;;;;;7.00;4.00;;;;;;;;5079119;28;45430;-77
2022/05/18 01:58:49;;;;;;;;;4.00;3.33;;;;;;;;5079376;27;45338;-78
2022/05/18 02:01:15;;;;;;;;;7.33;4.33;;;;;;;;5077360;28;47638;-78
2022/05/18 02:03:40;;;;;;;;;3.00;3.00;;;;;;;;5079316;27;45375;-79
2022/05/18 02:06:05;;;;;;;;;7.00;4.33;;;;;;;;5078915;27;45499;-78
2022/05/18 02:08:30;;;;;;;;;4.67;3.00;;;;;;;;5079322;28;45295;-78
2022/05/18 02:10:56;;;;;;;;;4.33;4.33;;;;;;;;5078677;27;45359;-79
2022/05/18 02:13:21;;;;;;;;;5.00;5.00;;;;;;;;5078555;27;45320;-78
2022/05/18 02:15:46;;;;;;;;;4.33;3.33;;;;;;;;5078899;27;45613;-79
2022/05/18 02:18:12;;;;;;;;;4.67;3.33;;;;;;;;5079023;27;45336;-79
2022/05/18 02:20:37;;;;;;;;;5.00;4.00;;;;;;;;5078756;27;45413;-78
2022/05/18 02:23:02;;;;;;;;;4.67;4.33;;;;;;;;5078704;28;45288;-79
2022/05/18 02:25:28;;;;;;;;;4.00;4.00;;;;;;;;5078575;27;45328;-80
2022/05/18 02:27:54;;;;;;;;;4.00;4.00;;;;;;;;5079033;27;45498;-79
2022/05/18 02:30:19;;;;;;;;;4.00;4.00;;;;;;;;5078386;27;46675;-77
2022/05/18 02:32:45;;;;;;;;;3.00;3.00;;;;;;;;5078310;28;45284;-80
2022/05/18 02:35:10;;;;;;;;;2.00;2.00;;;;;;;;5078546;27;45281;-77
2022/05/18 02:37:35;;;;;;;;;6.00;4.00;;;;;;;;5078489;27;45216;-78
2022/05/18 02:40:00;;;;;;;;;4.67;4.67;;;;;;;;5078483;28;45688;-78
2022/05/18 02:42:26;;;;;;;;;6.33;3.00;;;;;;;;5078255;28;45361;-77
2022/05/18 02:44:51;;;;;;;;;6.33;5.00;;;;;;;;5078558;27;45388;-78
2022/05/18 02:47:18;;;;;;;;;7.33;5.67;;;;;;;;5078456;27;45287;-78
2022/05/18 02:49:44;;;;;;;;;16.67;14.33;;;;;;;;5078052;27;46260;-77
2022/05/18 02:52:09;;;;;;;;;7.00;4.00;;;;;;;;5077657;27;45399;-78
2022/05/18 02:57:19;;;;;;;;;6.33;5.00;;;;;;;;5078227;28;45718;-77
2022/05/18 02:59:44;;;;;;;;;5.00;5.00;;;;;;;;5078080;27;46439;-78
2022/05/18 03:02:10;;;;;;;;;6.00;5.00;;;;;;;;5077833;27;45460;-78
2022/05/18 03:04:35;;;;;;;;;5.33;5.33;;;;;;;;5078302;28;45329;-77
2022/05/18 03:07:00;;;;;;;;;7.33;6.00;;;;;;;;5072860;27;45448;-77
2022/05/18 03:09:26;;;;;;;;;7.00;6.00;;;;;;;;5065636;28;46655;-77
2022/05/18 03:11:51;;;;;;;;;3.67;3.67;;;;;;;;5060803;27;45314;-77
2022/05/18 03:14:17;;;;;;;;;6.00;4.00;;;;;;;;5057736;28;45293;-76
2022/05/18 03:16:43;;;;;;;;;5.00;5.00;;;;;;;;5057876;28;45209;-79
2022/05/18 03:19:09;;;;;;;;;8.67;5.33;;;;;;;;5057298;28;45527;-78
2022/05/18 03:24:18;;;;;;;;;7.67;6.33;;;;;;;;5057516;28;45450;-79
2022/05/18 03:26:44;;;;;;;;;8.00;5.00;;;;;;;;5057600;28;45573;-78
2022/05/18 03:29:09;;;;;;;;;4.00;4.00;;;;;;;;5057249;28;45555;-78
2022/05/18 03:31:34;;;;;;;;;5.33;4.33;;;;;;;;5057136;28;45483;-78
2022/05/18 03:34:00;;;;;;;;;4.67;3.00;;;;;;;;5057518;28;45343;-78
2022/05/18 03:36:25;;;;;;;;;9.67;6.00;;;;;;;;5057498;28;45210;-79
2022/05/18 03:38:51;;;;;;;;;7.00;6.33;;;;;;;;5057054;28;46616;-78
2022/05/18 03:41:16;;;;;;;;;6.33;4.00;;;;;;;;5057190;28;45341;-76
2022/05/18 03:43:42;;;;;;;;;8.00;5.67;;;;;;;;5057350;28;45340;-77
2022/05/18 03:46:08;;;;;;;;;5.00;4.00;;;;;;;;5057183;28;45411;-77
2022/05/18 03:48:33;;;;;;;;;5.33;4.33;;;;;;;;5057040;28;45466;-79
2022/05/18 03:51:00;;;;;;;;;6.33;5.67;;;;;;;;5057018;28;45332;-78
2022/05/18 03:53:26;;;;;;;;;8.00;5.00;;;;;;;;5057133;28;45352;-78
2022/05/18 03:55:51;;;;;;;;;7.67;4.00;;;;;;;;5057141;28;45432;-77
2022/05/18 03:58:17;;;;;;;;;5.67;5.67;;;;;;;;5056758;28;46125;-78
2022/05/18 04:00:43;;;;;;;;;7.00;5.33;;;;;;;;5056946;28;45261;-78
2022/05/18 04:03:09;;;;;;;;;6.67;5.33;;;;;;;;5056906;28;45462;-77
2022/05/18 04:05:37;;;;;;;;;5.67;5.67;;;;;;;;5058957;28;45206;-77
2022/05/18 04:08:02;;;;;;;;;7.00;6.00;;;;;;;;5060452;28;46163;-77
2022/05/18 04:10:27;;;;;;;;;6.00;5.00;;;;;;;;5060266;28;45444;-77
2022/05/18 04:12:53;;;;;;;;;8.33;7.33;;;;;;;;5060656;28;45308;-77
2022/05/18 04:15:18;;;;;;;;;5.00;5.00;;;;;;;;5060647;28;45458;-77
2022/05/18 04:17:44;;;;;;;;;10.67;7.00;;;;;;;;5059982;28;45436;-77
2022/05/18 04:20:10;;;;;;;;;5.00;4.67;;;;;;;;5060295;28;45395;-78
2022/05/18 04:22:36;;;;;;;;;12.00;7.67;;;;;;;;5060161;28;45368;-78
2022/05/18 04:25:04;;;;;;;;;9.67;7.00;;;;;;;;5060263;28;45316;-78
2022/05/18 04:27:29;;;;;;;;;8.33;7.33;;;;;;;;5060168;28;47328;-76
2022/05/18 04:29:54;;;;;;;;;7.00;7.00;;;;;;;;5060092;28;45387;-78
2022/05/18 04:32:20;;;;;;;;;6.00;6.00;;;;;;;;5060031;28;45337;-77
2022/05/18 04:34:48;;;;;;;;;8.33;5.33;;;;;;;;5060372;28;45559;-77
2022/05/18 04:37:13;;;;;;;;;6.33;6.33;;;;;;;;5059784;28;45383;-77
2022/05/18 04:39:38;;;;;;;;;12.00;7.00;;;;;;;;5060182;28;45376;-78
2022/05/18 04:42:04;;;;;;;;;6.67;6.00;;;;;;;;5060246;28;45314;-77
2022/05/18 04:44:29;;;;;;;;;9.00;8.33;;;;;;;;5060075;28;45366;-78
2022/05/18 04:46:55;;;;;;;;;14.33;11.67;;;;;;;;5059484;28;45371;-78
2022/05/18 04:49:20;;;;;;;;;9.00;7.00;;;;;;;;5059855;28;45470;-79
2022/05/18 04:51:45;;;;;;;;;11.33;7.00;;;;;;;;5060014;28;45383;-78
2022/05/18 04:54:10;;;;;;;;;7.00;7.00;;;;;;;;5059858;28;45414;-78
2022/05/18 04:56:36;;;;;;;;;9.00;8.00;;;;;;;;5059598;28;46338;-77
2022/05/18 04:59:01;;;;;;;;;9.33;7.00;;;;;;;;5059665;28;45408;-77
2022/05/18 05:01:26;;;;;;;;;11.00;7.00;;;;;;;;5060079;28;45443;-77
2022/05/18 05:03:52;;;;;;;;;8.67;8.00;;;;;;;;5059770;28;45355;-79
2022/05/18 05:06:17;;;;;;;;;8.00;8.00;;;;;;;;5059376;28;46475;-80
2022/05/18 05:08:43;;;;;;;;;9.00;7.67;;;;;;;;5059349;28;45403;-78
2022/05/18 05:11:08;;;;;;;;;9.00;7.33;;;;;;;;5059635;28;45264;-78
2022/05/18 05:13:34;;;;;;;;;9.00;9.00;;;;;;;;5059493;28;45201;-79
2022/05/18 05:16:03;;;;;;;;;12.67;10.00;;;;;;;;5058722;28;46411;-79
2022/05/18 05:18:29;;;;;;;;;9.00;8.00;;;;;;;;5059059;28;45309;-77
2022/05/18 05:20:54;;;;;;;;;7.67;6.33;;;;;;;;5059590;28;45329;-77
2022/05/18 05:23:22;;;;;;;;;8.67;8.00;;;;;;;;5059618;28;45601;-78
2022/05/18 05:25:47;;;;;;;;;9.00;7.67;;;;;;;;5058412;28;47647;-77
2022/05/18 05:28:13;;;;;;;;;11.00;8.33;;;;;;;;5059165;28;45363;-77
2022/05/18 05:30:38;;;;;;;;;7.67;7.33;;;;;;;;5059114;28;45486;-77
2022/05/18 05:33:03;;;;;;;;;9.00;7.67;;;;;;;;5059203;28;45359;-77
2022/05/18 05:35:29;;;;;;;;;6.00;6.00;;;;;;;;5058933;28;46667;-78
2022/05/18 05:37:54;;;;;;;;;8.67;8.67;;;;;;;;5058820;28;45352;-78
2022/05/18 05:40:19;;;;;;;;;7.00;7.00;;;;;;;;5059305;28;45853;-77
2022/05/18 05:42:44;;;;;;;;;4.67;4.67;;;;;;;;5059147;28;45209;-79
2022/05/18 05:45:10;;;;;;;;;5.67;5.67;;;;;;;;5059113;28;46473;-77
2022/05/18 05:47:35;;;;;;;;;5.00;5.00;;;;;;;;5058416;28;45584;-79
2022/05/18 05:50:01;;;;;;;;;8.00;5.33;;;;;;;;5058634;28;45355;-76
2022/05/18 05:52:26;;;;;;;;;5.33;5.00;;;;;;;;5059370;28;45166;-78
2022/05/18 05:54:51;;;;;;;;;7.33;6.00;;;;;;;;5058483;28;47411;-78
2022/05/18 05:57:16;;;;;;;;;7.33;5.00;;;;;;;;5074139;28;45390;-77
2022/05/18 05:59:41;;;;;;;;;8.33;5.00;;;;;;;;5058800;28;45371;-77
2022/05/18 06:02:09;;;;;;;;;5.00;4.00;;;;;;;;5058801;28;45551;-78
2022/05/18 06:04:35;;;;;;;;;6.33;6.33;;;;;;;;5058458;28;46200;-78
2022/05/18 06:07:00;;;;;;;;;6.67;5.00;;;;;;;;5058315;28;45443;-78
2022/05/18 06:09:26;;;;;;;;;12.67;9.33;;;;;;;;5058868;28;45366;-78
2022/05/18 06:11:51;;;;;;;;;5.33;4.00;;;;;;;;5058792;28;45352;-78
2022/05/18 06:14:17;;;;;;;;;8.33;7.67;;;;;;;;5058280;28;47431;-79
2022/05/18 06:16:43;;;;;;;;;3.00;3.00;;;;;;;;5058515;28;45493;-80
2022/05/18 06:19:08;;;;;;;;;7.00;6.67;;;;;;;;5058312;28;45439;-79
2022/05/18 06:21:33;;;;;;;;;6.67;5.33;;;;;;;;5058801;28;45371;-74
2022/05/18 06:23:59;;;;;;;;;4.00;4.00;;;;;;;;5058188;28;45646;-80
2022/05/18 06:26:25;;;;;;;;;5.33;3.67;;;;;;;;5058187;28;45260;-79
2022/05/18 06:28:50;;;;;;;;;4.00;4.00;;;;;;;;5057415;28;45371;-81
2022/05/18 06:31:16;;;;;;;;;4.33;4.33;;;;;;;;5058345;28;45198;-80
2022/05/18 06:33:41;;;;;;;;;3.33;2.67;;;;;;;;5057918;28;47139;-81
2022/05/18 06:36:06;;;;;;;;;4.00;4.00;;;;;;;;5058139;28;45255;-80
2022/05/18 06:38:32;;;;;;;;;2.33;2.33;;;;;;;;5058426;28;45411;-79
2022/05/18 06:43:41;;;;;;;;;4.00;3.00;;;;;;;;5057933;28;45328;-79
2022/05/18 06:46:06;;;;;;;;;4.33;4.00;;;;;;;;5057980;28;45263;-79
2022/05/18 06:48:31;;;;;;;;;5.00;3.00;;;;;;;;5058024;28;45371;-78
2022/05/18 06:50:56;;;;;;;;;6.00;5.00;;;;;;;;5057975;28;45202;-79
2022/05/18 06:53:22;;;;;;;;;6.33;5.00;;;;;;;;5057946;28;47032;-78
2022/05/18 06:55:49;;;;;;;;;4.00;4.00;;;;;;;;5057817;28;45404;-78
2022/05/18 06:58:14;;;;;;;;;3.00;2.33;;;;;;;;5057726;28;45404;-79
2022/05/18 07:00:40;;;;;;;;;4.00;4.00;;;;;;;;5058179;28;45264;-79
2022/05/18 07:03:05;;;;;;;;;3.00;3.00;;;;;;;;5057420;28;47308;-79
2022/05/18 07:05:31;;;;;;;;;2.67;2.33;;;;;;;;5057824;28;45304;-78
2022/05/18 07:07:56;;;;;;;;;3.33;2.00;;;;;;;;5058040;28;45320;-78
2022/05/18 07:10:22;;;;;;;;;3.00;3.00;;;;;;;;5057815;28;45348;-78
2022/05/18 07:12:47;;;;;;;;;2.67;2.00;;;;;;;;5057709;28;45480;-78
2022/05/18 07:15:12;;;;;;;;;6.00;3.00;;;;;;;;5057721;28;45478;-79
2022/05/18 07:17:37;;;;;;;;;2.00;2.00;;;;;;;;5057790;28;45387;-78
2022/05/18 07:20:04;;;;;;;;;2.00;0.67;;;;;;;;5057647;28;45206;-77
2022/05/18 07:22:29;;;;;;;;;2.00;2.00;;;;;;;;5057385;28;48056;-77
2022/05/18 07:24:56;;;;;;;;;5.00;3.33;;;;;;;;5057403;28;45490;-78
2022/05/18 07:27:21;;;;;;;;;5.00;2.00;;;;;;;;5057743;28;45468;-77
2022/05/18 07:29:46;;;;;;;;;4.00;3.00;;;;;;;;5057454;28;45451;-75
2022/05/18 07:32:15;;;;;;;;;3.67;2.00;;;;;;;;5068726;28;46430;-80
2022/05/18 07:34:44;;;;;;;;;3.33;2.33;;;;;;;;5080215;27;45470;-82
2022/05/18 07:37:10;;;;;;;;;3.00;3.00;;;;;;;;5078645;27;45323;-81
2022/05/18 07:39:36;;;;;;;;;1.33;1.33;;;;;;;;5074180;27;45414;-82
2022/05/18 07:42:01;;;;;;;;;2.33;2.33;;;;;;;;5075534;27;45396;-81
2022/05/18 07:44:27;;;;;;;;;4.00;2.00;;;;;;;;5076148;27;46483;-80
2022/05/18 07:46:53;;;;;;;;;3.67;3.00;;;;;;;;5075974;27;45303;-80
2022/05/18 07:49:19;;;;;;;;;4.00;3.00;;;;;;;;5073227;27;45478;-81
2022/05/18 07:51:44;;;;;;;;;1.00;1.00;;;;;;;;5075774;27;47044;-81
2022/05/18 07:54:11;;;;;;;;;2.00;2.00;;;;;;;;5075773;27;45441;-82
2022/05/18 07:56:37;;;;;;;;;4.00;3.00;;;;;;;;5071908;28;45415;-82
2022/05/18 07:59:06;;;;;;;;;5.00;5.00;;;;;;;;5075813;28;45367;-80
2022/05/18 08:01:32;;;;;;;;;2.00;1.00;;;;;;;;5075823;27;45562;-83
2022/05/18 08:03:57;;;;;;;;;2.67;2.33;;;;;;;;5075667;27;45438;-82
2022/05/18 08:06:22;;;;;;;;;1.00;1.00;;;;;;;;5075555;28;45468;-81
2022/05/18 08:08:47;;;;;;;;;2.33;1.00;;;;;;;;5076112;27;45216;-82
2022/05/18 08:16:41;;;;;;;;;2.00;2.00;;;;;;;;5077387;28;45362;-81
2022/05/18 08:19:10;;;;;;;;;2.67;2.00;;;;;;;;5077335;27;45297;-80
2022/05/18 08:21:35;;;;;;;;;1.00;1.00;;;;;;;;5077761;27;46523;-79
2022/05/18 08:24:00;;;;;;;;;2.00;2.00;;;;;;;;5091005;27;45914;-83
2022/05/18 08:26:26;;;;;;;;;2.00;2.00;;;;;;;;5096980;27;45341;-84
2022/05/18 08:28:52;;;;;;;;;1.67;1.67;;;;;;;;5079540;27;45437;-79
2022/05/18 08:31:17;;;;;;;;;2.00;1.00;;;;;;;;5096218;27;47389;-83
2022/05/18 08:33:43;;;;;;;;;2.67;1.00;;;;;;;;5086691;27;45299;-83
2022/05/18 08:36:08;;;;;;;;;1.00;1.00;;;;;;;;5076623;27;45780;-82
2022/05/18 08:38:34;;;;;;;;;2.00;2.00;;;;;;;;5086379;27;45379;-84
2022/05/18 08:41:12;;;;;;;;;1.67;1.67;;;;;;;;5072302;27;46304;-83
2022/05/18 08:43:39;;;;;;;;;1.00;1.00;;;;;;;;5068195;28;45572;-81
2022/05/18 08:46:10;;;;;;;;;2.00;2.00;;;;;;;;5074445;28;45714;-81
2022/05/18 08:48:42;;;;;;;;;1.00;1.00;;;;;;;;5077144;28;45344;-83
2022/05/18 08:51:16;;;;;;;;;0.67;0.33;;;;;;;;5076460;27;45410;-85
2022/05/18 08:53:47;;;;;;;;;2.00;1.00;;;;;;;;5060681;28;45444;-83
2022/05/18 08:56:28;;;;;;;;;0.33;0.33;;;;;;;;5077697;27;45323;-80
2022/05/18 08:58:54;;;;;;;;;1.00;1.00;;;;;;;;5083365;27;45240;-82
2022/05/18 09:01:19;;;;;;;;;1.67;1.67;;;;;;;;5079678;27;45381;-83
2022/05/18 09:03:52;;;;;;;;;0.00;0.00;;;;;;;;5079599;27;45293;-81
2022/05/18 09:06:35;;;;;;;;;1.00;1.00;;;;;;;;5079465;27;45447;-83
2022/05/18 09:11:59;;;;;;;;;2.00;0.00;;;;;;;;5070624;27;45604;-81
2022/05/18 09:14:27;;;;;;;;;0.67;0.67;;;;;;;;5079347;27;45436;-79
2022/05/18 09:16:55;;;;;;;;;0.33;0.33;;;;;;;;5079513;27;45371;-84
2022/05/18 09:19:20;;;;;;;;;0.00;0.00;;;;;;;;5079360;27;45521;-82
2022/05/18 09:21:46;;;;;;;;;1.00;1.00;;;;;;;;5079311;27;46402;-82
2022/05/18 09:24:14;;;;;;;;;0.67;0.67;;;;;;;;5079243;27;45462;-82
2022/05/18 09:26:45;;;;;;;;;0.00;0.00;;;;;;;;5079276;27;45453;-82
2022/05/18 09:29:10;;;;;;;;;2.00;2.00;;;;;;;;5079032;27;45363;-83
2022/05/18 09:31:35;;;;;;;;;1.33;1.33;;;;;;;;5075882;27;47404;-83
2022/05/18 09:34:19;;;;;;;;;0.00;0.00;;;;;;;;5069816;27;45449;-82
2022/05/18 09:36:53;;;;;;;;;1.33;1.00;;;;;;;;5081455;27;45465;-83
2022/05/18 09:39:21;;;;;;;;;4.00;2.00;;;;;;;;5079604;27;45470;-80
2022/05/18 09:41:59;;;;;;;;;3.33;2.00;;;;;;;;5076944;27;46660;-81
2022/05/18 09:44:28;;;;;;;;;1.67;1.67;;;;;;;;5077042;27;45355;-81
2022/05/18 09:46:55;;;;;;;;;1.00;1.00;;;;;;;;5075334;27;45702;-81
2022/05/18 09:49:29;;;;;;;;;6.33;6.00;;;;;;;;5094136;27;45354;-81
2022/05/18 09:51:56;;;;;;;;;3.33;2.00;;;;;;;;5092282;27;46450;-83
2022/05/18 09:54:21;;;;;;;;;0.33;0.00;;;;;;;;5079111;27;45300;-79
2022/05/18 09:56:52;;;;;;;;;2.67;0.67;;;;;;;;5090580;27;45290;-80
2022/05/18 09:59:27;;;;;;;;;1.00;0.67;;;;;;;;5080692;27;45158;-82
2022/05/18 10:07:32;;;;;;;;;4.00;4.00;;;;;;;;5079157;28;45406;-81
2022/05/18 10:10:09;;;;;;;;;0.00;0.00;;;;;;;;5079338;27;45244;-84
2022/05/18 10:12:46;;;;;;;;;0.67;0.00;;;;;;;;5081891;27;47042;-81
2022/05/18 10:15:24;;;;;;;;;0.00;0.00;;;;;;;;5058495;28;45357;-80
2022/05/18 10:17:52;;;;;;;;;0.33;0.33;;;;;;;;5058922;28;45251;-80
2022/05/18 10:20:28;;;;;;;;;0.00;0.00;;;;;;;;5058622;28;45337;-81
2022/05/18 10:22:53;;;;;;;;;6.00;6.00;;;;;;;;5058286;28;46423;-80
2022/05/18 10:25:28;;;;;;;;;1.00;0.00;;;;;;;;5058636;28;45633;-83
2022/05/18 10:27:54;;;;;;;;;0.00;0.00;;;;;;;;5058868;28;45380;-82
2022/05/18 10:30:19;;;;;;;;;0.00;0.00;;;;;;;;5058517;28;45348;-83
2022/05/18 10:32:51;;;;;;;;;1.75;0.00;;;;;;;;5071276;28;45479;-82
2022/05/18 10:35:30;;;;;;;;;0.25;0.25;;;;;;;;5076713;27;45475;-79
2022/05/18 10:38:00;;;;;;;;;0.00;0.00;;;;;;;;5078380;27;45489;-80
2022/05/18 10:40:26;;;;;;;;;0.00;0.00;;;;;;;;5078337;27;45681;-80
2022/05/18 10:42:52;;;;;;;;;0.00;0.00;;;;;;;;5077828;27;46658;-79
2022/05/18 10:45:21;;;;;;;;;1.50;1.00;;;;;;;;5077919;27;45549;-80
2022/05/18 10:47:48;;;;;;;;;0.00;0.00;;;;;;;;5078580;27;45395;-80
2022/05/18 10:50:20;;;;;;;;;0.00;0.00;;;;;;;;5078136;27;45287;-79
2022/05/18 10:52:45;;;;;;;;;0.00;0.00;;;;;;;;5088386;27;46559;-79
2022/05/18 10:55:14;;;;;;;;;0.00;0.00;;;;;;;;5081601;27;45311;-79
2022/05/18 10:57:41;;;;;;;;;1.00;1.00;;;;;;;;5082500;27;45264;-78
2022/05/18 11:00:08;;;;;;;;;2.25;0.25;;;;;;;;5078292;27;45402;-80
2022/05/18 11:02:34;;;;;;;;;0.75;0.00;;;;;;;;5078014;27;45963;-80
2022/05/18 11:04:59;;;;;;;;;3.75;2.50;;;;;;;;5077759;27;45351;-80
2022/05/18 11:07:26;;;;;;;;;4.00;1.00;;;;;;;;5078044;27;45420;-80
2022/05/18 11:09:51;;;;;;;;;1.00;1.00;;;;;;;;5078483;28;45299;-79
2022/05/18 11:12:26;;;;;;;;;2.33;2.33;;;;;;;;5077139;27;45388;-80
2022/05/18 11:14:59;;;;;;;;;2.00;1.33;;;;;;;;5078303;27;45331;-81
2022/05/18 11:17:24;;;;;;;;;1.00;1.00;;;;;;;;5078547;27;45531;-80
2022/05/18 11:19:52;;;;;;;;;0.67;0.67;;;;;;;;5095450;27;45336;-82
2022/05/18 11:22:18;;;;;;;;;3.00;1.33;;;;;;;;5078698;27;45427;-79
2022/05/18 11:24:45;;;;;;;;;1.67;1.67;;;;;;;;5091825;27;45479;-81
2022/05/18 11:27:29;;;;;;;;;1.00;1.00;;;;;;;;5096567;27;45383;-80
2022/05/18 11:30:07;;;;;;;;;3.33;1.33;;;;;;;;5083884;27;45520;-79
2022/05/18 11:32:44;;;;;;;;;2.33;1.00;;;;;;;;5077400;28;46450;-78
2022/05/18 11:35:10;;;;;;;;;2.67;1.00;;;;;;;;5085261;27;45424;-76
2022/05/18 11:37:54;;;;;;;;;5.67;5.67;;;;;;;;5090428;27;45390;-79
2022/05/18 11:40:19;;;;;;;;;4.67;3.00;;;;;;;;5074352;27;45437;-79
2022/05/18 11:42:57;;;;;;;;;4.00;4.00;;;;;;;;5097343;27;45917;-78
2022/05/18 11:45:37;;;;;;;;;2.00;2.00;;;;;;;;5088333;27;45446;-80
2022/05/18 11:48:05;;;;;;;;;1.00;1.00;;;;;;;;5077521;27;45327;-80
2022/05/18 11:50:40;;;;;;;;;2.00;2.00;;;;;;;;5077368;28;45767;-80
2022/05/18 11:53:17;;;;;;;;;4.00;2.00;;;;;;;;5076862;27;45718;-79
2022/05/18 11:56:01;;;;;;;;;3.33;2.00;;;;;;;;5077399;28;45429;-80
2022/05/18 12:02:13;;;;;;;;;1.67;1.67;;;;;;;;5014962;28;45488;-79
2022/05/18 12:04:54;;;;;;;;;6.67;3.00;;;;;;;;5014535;28;46544;-81
2022/05/18 12:07:19;;;;;;;;;2.00;2.00;;;;;;;;5013951;28;45441;-80
2022/05/18 12:09:53;;;;;;;;;2.00;2.00;;;;;;;;5014202;28;45493;-80
2022/05/18 12:12:21;;;;;;;;;0.00;0.00;;;;;;;;5014648;28;45485;-79
2022/05/18 12:14:46;;;;;;;;;2.00;1.00;;;;;;;;5014139;28;45475;-80
2022/05/18 12:17:32;;;;;;;;;1.00;1.00;;;;;;;;5014206;28;45500;-82
2022/05/18 12:20:17;;;;;;;;;3.00;2.00;;;;;;;;5013708;28;45441;-81
2022/05/18 12:22:47;;;;;;;;;1.00;1.00;;;;;;;;4935936;28;45754;-79
2022/05/18 12:25:15;;;;;;;;;2.67;2.00;;;;;;;;4935666;28;46365;-79
2022/05/18 12:27:41;;;;;;;;;2.00;0.67;;;;;;;;4938914;28;45519;-79
2022/05/18 12:30:08;;;;;;;;;2.33;1.00;;;;;;;;4939021;28;45521;-79
2022/05/18 12:32:33;;;;;;;;;1.00;1.00;;;;;;;;4939383;28;45970;-78
2022/05/18 12:35:13;;;;;;;;;4.33;1.00;;;;;;;;4956918;28;46178;-79
2022/05/18 12:37:56;;;;;;;;;1.67;1.67;;;;;;;;4997653;28;45326;-81
2022/05/18 12:40:31;;;;;;;;;3.00;2.00;;;;;;;;4997690;28;45592;-82
2022/05/18 12:43:02;;;;;;;;;1.00;1.00;;;;;;;;4997523;28;45362;-82
2022/05/18 12:45:30;;;;;;;;;1.33;1.00;;;;;;;;4994768;28;46538;-81
2022/05/18 12:48:09;;;;;;;;;1.00;1.00;;;;;;;;4997172;28;45410;-78
2022/05/18 12:50:36;;;;;;;;;0.67;0.67;;;;;;;;4997243;28;45461;-80
2022/05/18 12:53:03;;;;;;;;;3.00;1.67;;;;;;;;4997112;28;45508;-80
2022/05/18 12:55:31;;;;;;;;;1.00;1.00;;;;;;;;4996950;28;45466;-81
2022/05/18 12:58:08;;;;;;;;;1.00;1.00;;;;;;;;4996591;28;45418;-81
2022/05/18 13:00:33;;;;;;;;;1.67;1.00;;;;;;;;5062952;27;45450;-81
2022/05/18 13:03:21;;;;;;;;;2.00;1.00;;;;;;;;5079630;28;45374;-82
2022/05/18 13:05:51;;;;;;;;;2.67;1.00;;;;;;;;5016412;28;46343;-79
2022/05/18 13:08:16;;;;;;;;;1.67;1.00;;;;;;;;5016472;28;45560;-80
2022/05/18 13:11:00;;;;;;;;;1.00;1.00;;;;;;;;5017222;28;45582;-82
2022/05/18 13:13:26;;;;;;;;;1.00;1.00;;;;;;;;5016949;28;45509;-79
2022/05/18 13:15:53;;;;;;;;;1.00;1.00;;;;;;;;5016427;28;45515;-81
2022/05/18 13:18:19;;;;;;;;;0.67;0.00;;;;;;;;4999380;28;45433;-79
2022/05/18 13:20:45;;;;;;;;;1.00;1.00;;;;;;;;5016807;28;45448;-79
2022/05/18 13:23:23;;;;;;;;;1.00;1.00;;;;;;;;5017161;28;45375;-79
2022/05/18 13:25:51;;;;;;;;;2.00;2.00;;;;;;;;5017036;28;47347;-79
2022/05/18 13:28:17;;;;;;;;;2.67;1.00;;;;;;;;5017293;28;45297;-80
2022/05/18 13:30:47;;;;;;;;;0.00;0.00;;;;;;;;5017050;28;45668;-80
2022/05/18 13:33:13;;;;;;;;;2.00;1.00;;;;;;;;5017106;28;45459;-81
2022/05/18 13:35:38;;;;;;;;;5.00;1.67;;;;;;;;5016877;28;46246;-81
2022/05/18 13:38:03;;;;;;;;;0.67;0.67;;;;;;;;5016461;28;45371;-82
2022/05/18 13:40:29;;;;;;;;;3.00;2.00;;;;;;;;5017123;28;45291;-79
2022/05/18 13:42:55;;;;;;;;;3.00;1.00;;;;;;;;5051270;28;45246;-79
2022/05/18 13:45:21;;;;;;;;;1.33;1.00;;;;;;;;5078986;27;46405;-79
2022/05/18 13:47:48;;;;;;;;;5.33;4.33;;;;;;;;5078995;28;45361;-79
2022/05/18 13:50:25;;;;;;;;;1.00;1.00;;;;;;;;5078688;27;45416;-80
2022/05/18 13:52:51;;;;;;;;;2.67;2.00;;;;;;;;5078821;28;45589;-80
2022/05/18 13:55:19;;;;;;;;;1.00;1.00;;;;;;;;5078739;27;46026;-79
2022/05/18 13:57:48;;;;;;;;;2.00;2.00;;;;;;;;5079009;27;45447;-79
2022/05/18 14:00:34;;;;;;;;;2.00;2.00;;;;;;;;5078808;27;45242;-79
2022/05/18 14:03:00;;;;;;;;;1.00;1.00;;;;;;;;5068292;28;45607;-79
2022/05/18 14:05:30;;;;;;;;;0.00;0.00;;;;;;;;5077559;27;45707;-79
2022/05/18 14:07:56;;;;;;;;;0.00;0.00;;;;;;;;5078798;28;45383;-80
2022/05/18 14:10:24;;;;;;;;;1.00;1.00;;;;;;;;5079161;27;45392;-80
2022/05/18 14:12:54;;;;;;;;;1.00;1.00;;;;;;;;5079501;28;45393;-80
2022/05/18 14:15:19;;;;;;;;;4.00;1.00;;;;;;;;5078565;27;47067;-79
2022/05/18 14:17:45;;;;;;;;;24.67;22.00;;;;;;;;5076982;28;45439;-80
2022/05/18 14:20:28;;;;;;;;;5.00;5.00;;;;;;;;5075186;27;45421;-80
2022/05/18 14:22:58;;;;;;;;;12.33;10.33;;;;;;;;5083933;27;45430;-79
2022/05/18 14:25:26;;;;;;;;;2.00;2.00;;;;;;;;5096180;27;45268;-80
2022/05/18 14:27:54;;;;;;;;;1.00;1.00;;;;;;;;5094857;27;45486;-79
2022/05/18 14:30:21;;;;;;;;;1.00;1.00;;;;;;;;5077024;27;45787;-80
2022/05/18 14:32:55;;;;;;;;;1.00;1.00;;;;;;;;5080277;27;45446;-79
2022/05/18 14:35:23;;;;;;;;;2.00;2.00;;;;;;;;5077944;27;46314;-81
2022/05/18 14:37:49;;;;;;;;;1.67;1.67;;;;;;;;5077903;27;45190;-80
2022/05/18 14:40:16;;;;;;;;;3.00;2.00;;;;;;;;5078697;27;45371;-80
2022/05/18 14:42:45;;;;;;;;;1.00;1.00;;;;;;;;5078412;27;45526;-80
2022/05/18 14:45:39;;;;;;;;;6.33;3.00;;;;;;;;5077819;27;45657;-80
2022/05/18 14:48:08;;;;;;;;;0.67;0.67;;;;;;;;5034948;28;45288;-80
2022/05/18 14:50:38;;;;;;;;;1.00;0.33;;;;;;;;5035923;28;45211;-80
2022/05/18 14:53:26;;;;;;;;;3.67;2.00;;;;;;;;5035519;28;45457;-80
2022/05/18 14:55:54;;;;;;;;;0.67;0.67;;;;;;;;4995567;28;45638;-81
2022/05/18 14:58:43;;;;;;;;;1.00;1.00;;;;;;;;4995264;28;45609;-81
2022/05/18 15:01:35;;;;;;;;;1.00;1.00;;;;;;;;4956498;28;45436;-80
2022/05/18 15:04:10;;;;;;;;;2.00;1.00;;;;;;;;4918075;28;45621;-80
2022/05/18 15:06:36;;;;;;;;;1.00;0.67;;;;;;;;4909173;28;47077;-80
2022/05/18 15:09:03;;;;;;;;;1.33;1.33;;;;;;;;4898898;28;45683;-80
2022/05/18 15:11:28;;;;;;;;;1.33;1.33;;;;;;;;4899062;28;45443;-80
2022/05/18 15:14:01;;;;;;;;;1.00;1.00;;;;;;;;4899027;29;45382;-78